TRA5061 EHRD-LEGE
Flight info
| Callsign | TRA5061 |
|---|---|
| Flight time | N/A |
| Altitude | 37000 |
| Route | WOODY N872 MEDIL DCT KOVIN DCT DUCRA DCT RESMI DCT DEKOD DCT DISAK DCT DIRMO DCT VALKU DCT ATSUP DCT MINSO DCT DEGOL DCT PPG A27 KANIG |
| Aircraft | A21N/M-SBDE2E3FGHIJ1J5M1P2RWXYZ/LB1D1G1 |
Departure
| Time | N/A |
|---|---|
| Airport | Rotterdam The Hague Airport (EHRD) |
Arrival
| Time | 2026-04-21 03:06 |
|---|---|
| Airport | Girona-Costa Brava Airport (LEGE) |
| Time | Latitude | Longitude | Altitude | Speed | Heading |
|---|---|---|---|---|---|
| 2026-04-21 02:43 | 43.90896 | 2.86117 | 36363 ft | 447 kts | 188° |
| 2026-04-21 02:43 | 43.87789 | 2.85897 | 35869 ft | 445 kts | 188° |
| 2026-04-21 02:43 | 43.84677 | 2.85676 | 35265 ft | 445 kts | 188° |
| 2026-04-21 02:44 | 43.81609 | 2.85457 | 34642 ft | 446 kts | 188° |
| 2026-04-21 02:44 | 43.78505 | 2.85256 | 33947 ft | 447 kts | 187° |
| 2026-04-21 02:44 | 43.75397 | 2.85239 | 33201 ft | 450 kts | 184° |
| 2026-04-21 02:44 | 43.72252 | 2.85283 | 32389 ft | 453 kts | 184° |
| 2026-04-21 02:45 | 43.69060 | 2.85327 | 31538 ft | 457 kts | 184° |
| 2026-04-21 02:45 | 43.65893 | 2.85371 | 30703 ft | 459 kts | 184° |
| 2026-04-21 02:45 | 43.62668 | 2.85417 | 29838 ft | 462 kts | 184° |
| 2026-04-21 02:45 | 43.59473 | 2.85466 | 29148 ft | 461 kts | 184° |
| 2026-04-21 02:46 | 43.56261 | 2.85516 | 28638 ft | 455 kts | 184° |
| 2026-04-21 02:46 | 43.53109 | 2.85566 | 28147 ft | 450 kts | 184° |
| 2026-04-21 02:46 | 43.50014 | 2.85614 | 27652 ft | 445 kts | 184° |
| 2026-04-21 02:46 | 43.47967 | 2.85645 | 27311 ft | 442 kts | 184° |
| 2026-04-21 02:47 | 43.43918 | 2.85704 | 26662 ft | 436 kts | 184° |
| 2026-04-21 02:47 | 43.40892 | 2.85749 | 26182 ft | 432 kts | 184° |
| 2026-04-21 02:47 | 43.38867 | 2.85778 | 25846 ft | 429 kts | 183° |
| 2026-04-21 02:47 | 43.34928 | 2.85836 | 25203 ft | 424 kts | 184° |
| 2026-04-21 02:48 | 43.31988 | 2.85878 | 24721 ft | 421 kts | 183° |
| 2026-04-21 02:48 | 43.29057 | 2.85920 | 24242 ft | 418 kts | 183° |
| 2026-04-21 02:48 | 43.26182 | 2.85961 | 23768 ft | 415 kts | 183° |
| 2026-04-21 02:48 | 43.23270 | 2.86003 | 23290 ft | 412 kts | 183° |
| 2026-04-21 02:49 | 43.20408 | 2.86044 | 22813 ft | 410 kts | 183° |
| 2026-04-21 02:49 | 43.17598 | 2.86085 | 22343 ft | 408 kts | 183° |
| 2026-04-21 02:49 | 43.14748 | 2.86127 | 21848 ft | 406 kts | 183° |
| 2026-04-21 02:49 | 43.11949 | 2.86168 | 21358 ft | 404 kts | 183° |
| 2026-04-21 02:50 | 43.09117 | 2.86207 | 20863 ft | 403 kts | 183° |
| 2026-04-21 02:50 | 43.06345 | 2.86248 | 20382 ft | 401 kts | 183° |
| 2026-04-21 02:50 | 43.03554 | 2.86288 | 19886 ft | 399 kts | 183° |
| 2026-04-21 02:50 | 43.00793 | 2.86328 | 19426 ft | 396 kts | 183° |
| 2026-04-21 02:51 | 42.98933 | 2.86355 | 19094 ft | 396 kts | 183° |
| 2026-04-21 02:51 | 42.96214 | 2.86394 | 18606 ft | 394 kts | 183° |
| 2026-04-21 02:51 | 42.92537 | 2.86446 | 17950 ft | 392 kts | 183° |
| 2026-04-21 02:51 | 42.90718 | 2.86471 | 17632 ft | 390 kts | 183° |
| 2026-04-21 02:52 | 42.87127 | 2.86524 | 17002 ft | 387 kts | 183° |
| 2026-04-21 02:52 | 42.84417 | 2.86564 | 16570 ft | 384 kts | 183° |
| 2026-04-21 02:52 | 42.81765 | 2.86602 | 16133 ft | 381 kts | 182° |
| 2026-04-21 02:52 | 42.79138 | 2.86639 | 15681 ft | 378 kts | 182° |
| 2026-04-21 02:53 | 42.77359 | 2.86679 | 15375 ft | 377 kts | 180° |
| 2026-04-21 02:53 | 42.73923 | 2.87263 | 14772 ft | 377 kts | 171° |
| 2026-04-21 02:53 | 42.71354 | 2.88211 | 14314 ft | 375 kts | 165° |
| 2026-04-21 02:53 | 42.68882 | 2.89275 | 13868 ft | 373 kts | 164° |
| 2026-04-21 02:54 | 42.66443 | 2.90351 | 13425 ft | 371 kts | 164° |
| 2026-04-21 02:54 | 42.63991 | 2.91425 | 12980 ft | 368 kts | 164° |
| 2026-04-21 02:54 | 42.61575 | 2.92476 | 12552 ft | 365 kts | 164° |
| 2026-04-21 02:54 | 42.59160 | 2.93519 | 12078 ft | 363 kts | 164° |
| 2026-04-21 02:55 | 42.56765 | 2.94550 | 11620 ft | 361 kts | 164° |
| 2026-04-21 02:55 | 42.54372 | 2.95575 | 11167 ft | 358 kts | 164° |
| 2026-04-21 02:55 | 42.51995 | 2.96592 | 10739 ft | 354 kts | 164° |
| 2026-04-21 02:55 | 42.49694 | 2.97558 | 10454 ft | 344 kts | 167° |
| 2026-04-21 02:56 | 42.47371 | 2.97884 | 10325 ft | 323 kts | 186° |
| 2026-04-21 02:56 | 42.43292 | 2.96569 | 10077 ft | 285 kts | 199° |
| 2026-04-21 02:56 | 42.41414 | 2.95805 | 9974 ft | 282 kts | 199° |
| 2026-04-21 02:57 | 42.40152 | 2.95293 | 9724 ft | 284 kts | 198° |
| 2026-04-21 02:57 | 42.37617 | 2.94284 | 9217 ft | 282 kts | 198° |
| 2026-04-21 02:57 | 42.35736 | 2.93550 | 8860 ft | 281 kts | 198° |
| 2026-04-21 02:57 | 42.34497 | 2.93070 | 8624 ft | 280 kts | 198° |
| 2026-04-21 02:58 | 42.32636 | 2.92347 | 8267 ft | 279 kts | 198° |
| 2026-04-21 02:58 | 42.30174 | 2.91393 | 7943 ft | 272 kts | 197° |
| 2026-04-21 02:58 | 42.28397 | 2.90708 | 7931 ft | 258 kts | 197° |
| 2026-04-21 02:58 | 42.27255 | 2.90269 | 7930 ft | 252 kts | 197° |
| 2026-04-21 02:59 | 42.25006 | 2.89404 | 7943 ft | 251 kts | 197° |
| 2026-04-21 02:59 | 42.23341 | 2.88764 | 7834 ft | 243 kts | 198° |
| 2026-04-21 02:59 | 42.21744 | 2.88152 | 7510 ft | 235 kts | 198° |
| 2026-04-21 02:59 | 42.20194 | 2.87555 | 7018 ft | 235 kts | 197° |
| 2026-04-21 03:00 | 42.18603 | 2.86941 | 6484 ft | 236 kts | 197° |
| 2026-04-21 03:00 | 42.17567 | 2.86544 | 6187 ft | 233 kts | 197° |
| 2026-04-21 03:00 | 42.16058 | 2.85966 | 5977 ft | 216 kts | 197° |
| 2026-04-21 03:00 | 42.14134 | 2.85205 | 5189 ft | 220 kts | 198° |
| 2026-04-21 03:01 | 42.13167 | 2.84823 | 4818 ft | 220 kts | 198° |
| 2026-04-21 03:01 | 42.11215 | 2.84068 | 4172 ft | 214 kts | 198° |
| 2026-04-21 03:01 | 42.10272 | 2.83708 | 3955 ft | 215 kts | 198° |
| 2026-04-21 03:01 | 42.08821 | 2.83157 | 3679 ft | 214 kts | 198° |
| 2026-04-21 03:02 | 42.06907 | 2.82434 | 3576 ft | 214 kts | 198° |
| 2026-04-21 03:02 | 42.05489 | 2.81898 | 3339 ft | 208 kts | 198° |
| 2026-04-21 03:02 | 42.04579 | 2.81554 | 3150 ft | 203 kts | 198° |
| 2026-04-21 03:02 | 42.02813 | 2.80886 | 2806 ft | 189 kts | 198° |
| 2026-04-21 03:03 | 42.01596 | 2.80427 | 2571 ft | 172 kts | 198° |
| 2026-04-21 03:03 | 42.00485 | 2.80005 | 2326 ft | 159 kts | 198° |
| 2026-04-21 03:03 | 41.99446 | 2.79610 | 2115 ft | 154 kts | 198° |
| 2026-04-21 03:03 | 41.98416 | 2.79217 | 1923 ft | 153 kts | 198° |
| 2026-04-21 03:04 | 41.97388 | 2.78827 | 1724 ft | 152 kts | 198° |
| 2026-04-21 03:04 | 41.96377 | 2.78443 | 1522 ft | 147 kts | 198° |
| 2026-04-21 03:04 | 41.95407 | 2.78076 | 1309 ft | 142 kts | 198° |
| 2026-04-21 03:04 | 41.94466 | 2.77717 | 1122 ft | 141 kts | 197° |
| 2026-04-21 03:05 | 41.93520 | 2.77358 | 934 ft | 140 kts | 197° |
| 2026-04-21 03:05 | 41.92899 | 2.77122 | 808 ft | 140 kts | 197° |
| 2026-04-21 03:05 | 41.91955 | 2.76765 | 618 ft | 139 kts | 196° |
| 2026-04-21 03:05 | 41.90721 | 2.76310 | 452 ft | 128 kts | 197° |
| 2026-04-21 03:06 | 41.90154 | 2.76094 | 429 ft | 40 kts | 200° |
| 2026-04-21 03:06 | 41.90052 | 2.76045 | 426 ft | 14 kts | 198° |
| 2026-04-21 03:06 | 41.89967 | 2.76009 | 424 ft | 22 kts | 197° |
| 2026-04-21 03:06 | 41.89788 | 2.75939 | 416 ft | 17 kts | 196° |
| 2026-04-21 03:07 | 41.89664 | 2.75892 | 410 ft | 20 kts | 196° |
| 2026-04-21 03:07 | 41.89546 | 2.75863 | 407 ft | 11 kts | 159° |
| 2026-04-21 03:07 | 41.89524 | 2.75947 | 410 ft | 9 kts | 64° |
| 2026-04-21 03:07 | 41.89553 | 2.76010 | 413 ft | 6 kts | 59° |
| 2026-04-21 03:08 | 41.89572 | 2.76055 | 414 ft | 5 kts | 60° |
| 2026-04-21 03:08 | 41.89598 | 2.76098 | 416 ft | 6 kts | 31° |
| 2026-04-21 03:08 | 41.89633 | 2.76111 | 417 ft | 8 kts | 13° |
| 2026-04-21 03:08 | 41.89703 | 2.76137 | 418 ft | 11 kts | 16° |
| 2026-04-21 03:09 | 41.89799 | 2.76173 | 421 ft | 9 kts | 16° |
| 2026-04-21 03:09 | 41.89854 | 2.76194 | 422 ft | 7 kts | 16° |
| 2026-04-21 03:09 | 41.89888 | 2.76207 | 423 ft | 7 kts | 16° |
| 2026-04-21 03:09 | 41.89908 | 2.76245 | 424 ft | 4 kts | 91° |
| 2026-04-21 03:10 | 41.89896 | 2.76304 | 425 ft | 6 kts | 107° |
| 2026-04-21 03:10 | 41.89882 | 2.76367 | 426 ft | 6 kts | 111° |
| 2026-04-21 03:10 | 41.89861 | 2.76421 | 425 ft | 5 kts | 111° |
| 2026-04-21 03:10 | 41.89857 | 2.76445 | 425 ft | 1 kts | 103° |
| 2026-04-21 03:11 | 41.89854 | 2.76458 | 425 ft | 1 kts | 104° |
| 2026-04-21 03:11 | 41.89852 | 2.76471 | 425 ft | 0 kts | 105° |
| 2026-04-21 03:11 | 41.89851 | 2.76472 | 425 ft | 0 kts | 105° |